Courtland, California
Current Conditions -  °F | °C
As of 5:53 AM on Thursday 23 Oct 2014 (Local Time) from KSAC Reporting Station
Clear Clear  
Wind Chill: 59°   Ceiling: Unl
Heat Index: 59°   Visibility: 10mi
Dew Point: 53°   Wind: 3mph
Humidity: 81%   Direction: 120°ESE
Pressure: 30.01"   Gusts: NA
Location:  38.33°N, 121.57°W
Report Text: KSAC 231253Z AUTO 12003KT 10SM CLR 15/12 A3001 RMK AO2 SLP161 T01500117
Loading
Personal Weather Stations






























Interactive Weather Map
Tropical Storm Tracking
New forecast layout! Learn more

10-Day Weather Forecast

Advertisements
Track Severe Weather on mobile